Blackdown, United Kingdom
Current Conditions -  °F | °C
As of 10:50 AM on Sunday 21 Dec 2014 (Local Time) from EGLF Reporting Station
Broken Clouds Broken Clouds  
Wind Chill: 42°   Ceiling: 3000
Heat Index: 48°   Visibility: 6mi
Dew Point: 41°   Wind: 15mph
Humidity: 76%   Direction: 230°SW
Pressure: 30.36"   Gusts: NA
Location:  51.29°N, 0.73°W
Report Text: EGLF 211050Z 23013KT 9999 FEW021 BKN030 09/05 Q1028
Loading
Personal Weather Stations






























Interactive Weather Map New forecast layout! Learn more

10-Day Weather Forecast

Advertisements
Track Severe Weather on mobile